Time;durP1;ratioP1;P1;durP2;ratioP2;P2;SDS_P1;SDS_P2;PMS_P1;PMS_P2;Temp;Humidity;BMP_temperature;BMP_pressure;BME280_temperature;BME280_humidity;BME280_pressure;Samples;Min_cycle;Max_cycle;Signal;HPM_P1;HPM_P2
2022/01/21 00:02:56;;;;;;;8.32;2.30;;;;;;;-2.54;100.00;99625.13;5099290;28;20083;-82
2022/01/21 00:05:40;;;;;;;9.25;2.78;;;;;;;-2.44;100.00;99653.63;5084366;28;20072;-81
2022/01/21 00:08:26;;;;;;;6.95;2.53;;;;;;;-2.52;100.00;99649.13;5098654;28;20044;-82
2022/01/21 00:11:13;;;;;;;7.78;2.33;;;;;;;-2.60;100.00;99652.38;5098535;28;20040;-81
2022/01/21 00:13:58;;;;;;;4.53;2.20;;;;;;;-2.69;100.00;99628.22;5098634;28;20044;-82
2022/01/21 00:16:43;;;;;;;6.30;2.58;;;;;;;-2.62;100.00;99653.16;5098577;28;20036;-81
2022/01/21 00:19:29;;;;;;;7.90;2.13;;;;;;;-2.63;100.00;99661.69;5084332;28;20044;-80
2022/01/21 00:31:39;;;;;;;4.10;1.38;;;;;;;-2.97;100.00;99658.22;5099059;28;20051;-82
2022/01/21 00:34:24;;;;;;;8.40;1.92;;;;;;;-2.77;100.00;99668.16;5084013;28;20048;-82
2022/01/21 00:37:09;;;;;;;4.63;1.95;;;;;;;-3.09;100.00;99661.34;5098203;28;20040;-82
2022/01/21 00:39:57;;;;;;;3.55;1.65;;;;;;;-2.91;100.00;99672.91;5098828;28;20442;-83
2022/01/21 00:45:26;;;;;;;8.60;3.97;;;;;;;-3.09;100.00;99680.97;5098662;28;20039;-81
2022/01/21 00:48:11;;;;;;;3.33;2.10;;;;;;;-3.01;100.00;99691.44;5083787;28;20059;-82
2022/01/21 00:50:56;;;;;;;5.93;1.90;;;;;;;-3.17;100.00;99687.59;5083644;28;20040;-82
2022/01/21 00:53:40;;;;;;;2.75;1.85;;;;;;;-3.18;100.00;99680.75;5098506;28;20036;-82
2022/01/21 00:56:24;;;;;;;4.65;1.88;;;;;;;-3.27;100.00;99671.09;5097679;28;20094;-82
2022/01/21 00:59:09;;;;;;;6.03;2.42;;;;;;;-3.25;100.00;99682.25;5097877;28;20040;-82
2022/01/21 01:01:53;;;;;;;6.38;1.65;;;;;;;-3.21;100.00;99681.50;5083614;28;20127;-82
2022/01/21 01:04:39;;;;;;;5.32;1.92;;;;;;;-3.25;100.00;99689.06;5097683;28;20044;-82
2022/01/21 01:07:23;;;;;;;9.35;1.83;;;;;;;-3.36;100.00;99697.31;5083445;28;20127;-82
2022/01/21 01:10:13;;;;;;;11.63;3.00;;;;;;;-3.34;100.00;99694.81;5097462;28;20036;-82
2022/01/21 01:19:52;;;;;;;8.20;1.60;;;;;;;-3.33;100.00;99696.53;5098235;28;20070;-82
2022/01/21 01:22:10;;;;;;;10.15;1.63;;;;;;;-3.42;100.00;99707.38;5098033;28;20047;-82
2022/01/21 01:27:57;;;;;;;3.35;1.38;;;;;;;-3.54;100.00;99712.16;5097285;28;20055;-82
2022/01/21 01:30:42;;;;;;;4.57;1.13;;;;;;;-3.50;100.00;99711.41;5097045;28;20436;-82
2022/01/21 01:33:34;;;;;;;5.47;1.25;;;;;;;-3.56;100.00;99711.22;5097059;28;20040;-81
2022/01/21 01:36:20;;;;;;;10.90;2.15;;;;;;;-3.55;100.00;99718.06;5097077;28;20127;-82
2022/01/21 01:39:15;;;;;;;3.88;1.15;;;;;;;-3.55;100.00;99713.81;5082922;28;20036;-82
2022/01/21 01:51:13;;;;;;;7.63;1.25;;;;;;;-3.65;100.00;99708.38;5096176;28;20145;-82
2022/01/21 01:54:11;;;;;;;6.55;0.90;;;;;;;-3.74;100.00;99708.09;5082702;28;20059;-82
2022/01/21 01:56:57;;;;;;;9.80;1.60;;;;;;;-3.66;100.00;99722.88;5096683;28;20052;-83
2022/01/21 01:59:42;;;;;;;7.05;1.10;;;;;;;-3.65;100.00;99716.06;5082362;28;20055;-82
2022/01/21 02:02:27;;;;;;;10.35;1.73;;;;;;;-3.74;100.00;99715.78;5082264;28;20044;-82
2022/01/21 02:05:11;;;;;;;9.57;2.45;;;;;;;-3.76;100.00;99724.28;5096588;28;20119;-82
2022/01/21 02:07:59;;;;;;;4.68;1.67;;;;;;;-3.80;100.00;99709.66;5097144;28;20043;-82
2022/01/21 02:10:44;;;;;;;3.13;1.15;;;;;;;-3.82;100.00;99721.53;5082097;28;20040;-82
2022/01/21 02:13:33;;;;;;;5.53;1.33;;;;;;;-3.83;100.00;99717.25;5096276;28;20040;-82
2022/01/21 02:22:15;;;;;;;6.50;1.27;;;;;;;-3.76;100.00;99718.31;5096050;28;20127;-82
2022/01/21 02:25:15;;;;;;;5.25;1.02;;;;;;;-3.78;100.00;99710.56;5096158;28;20047;-83
2022/01/21 02:28:00;;;;;;;6.57;1.42;;;;;;;-3.79;100.00;99723.31;5095971;28;20401;-83
2022/01/21 02:30:54;;;;;;;3.83;1.30;;;;;;;-3.72;100.00;99738.06;5082259;28;20040;-83
2022/01/21 02:33:39;;;;;;;8.07;0.82;;;;;;;-3.67;100.00;99726.28;5081593;28;20056;-83
2022/01/21 02:36:24;;;;;;;5.32;1.08;;;;;;;-3.76;100.00;99723.41;5095979;28;20052;-82
2022/01/21 02:39:09;;;;;;;4.05;1.30;;;;;;;-3.78;100.00;99731.03;5096061;28;20040;-83
2022/01/21 02:41:53;;;;;;;9.40;1.20;;;;;;;-3.67;100.00;99726.28;5095821;28;20097;-83
2022/01/21 02:44:39;;;;;;;8.77;2.20;;;;;;;-3.71;100.00;99719.28;5095765;28;20075;-82
2022/01/21 02:47:23;;;;;;;7.22;1.20;;;;;;;-3.70;100.00;99726.19;5081552;28;20044;-82
2022/01/21 02:50:15;;;;;;;9.00;1.05;;;;;;;-3.61;100.00;99733.25;5082030;28;20040;-82
2022/01/21 02:53:13;;;;;;;4.03;1.00;;;;;;;-3.60;100.00;99725.63;5081487;28;20040;-82
2022/01/21 02:55:57;;;;;;;8.88;1.52;;;;;;;-3.65;100.00;99723.75;5095550;28;20052;-82
2022/01/21 02:58:42;;;;;;;2.90;1.02;;;;;;;-3.56;100.00;99742.81;5081272;28;20142;-82
2022/01/21 03:01:27;;;;;;;4.50;0.70;;;;;;;-3.55;100.00;99733.44;5081401;28;20064;-82
2022/01/21 03:04:16;;;;;;;8.10;1.75;;;;;;;-3.60;100.00;99722.19;5094652;28;20051;-82
2022/01/21 03:07:01;;;;;;;4.10;0.60;;;;;;;-3.54;100.00;99738.63;5096195;28;20046;-82
2022/01/21 03:09:45;;;;;;;5.72;1.00;;;;;;;-3.64;100.00;99730.59;5095284;28;20043;-82
2022/01/21 03:12:31;;;;;;;5.78;0.70;;;;;;;-3.62;100.00;99734.06;5095333;28;20036;-82
2022/01/21 03:15:15;;;;;;;3.25;0.90;;;;;;;-3.56;100.00;99745.38;5081243;28;20043;-82
2022/01/21 03:17:59;;;;;;;4.55;0.98;;;;;;;-3.55;100.00;99759.03;5095375;28;20474;-82
2022/01/21 03:20:45;;;;;;;3.50;0.65;;;;;;;-3.32;100.00;99755.47;5095241;28;20047;-83
2022/01/21 03:23:30;;;;;;;2.72;0.80;;;;;;;-3.42;100.00;99750.91;5095894;28;20048;-82
2022/01/21 03:26:18;;;;;;;2.25;0.68;;;;;;;-3.46;100.00;99753.34;5095280;28;20070;-82
2022/01/21 03:29:06;;;;;;;4.50;0.60;;;;;;;-3.36;100.00;99761.34;5095311;28;20122;-82
2022/01/21 03:31:56;;;;;;;5.78;0.75;;;;;;;-3.39;100.00;99773.19;5095174;28;20045;-82
2022/01/21 03:34:40;;;;;;;5.53;0.90;;;;;;;-3.45;100.00;99768.75;5095139;28;20123;-83
2022/01/21 03:37:26;;;;;;;5.43;0.98;;;;;;;-3.37;100.00;99767.28;5081090;28;20055;-82
2022/01/21 03:40:11;;;;;;;4.53;0.63;;;;;;;-3.39;100.00;99775.75;5080871;28;20040;-82
2022/01/21 03:42:56;;;;;;;10.48;1.25;;;;;;;-3.11;100.00;99783.44;5080899;28;20044;-81
2022/01/21 03:45:40;;;;;;;5.07;0.98;;;;;;;-3.21;100.00;99794.25;5094860;28;20048;-82
2022/01/21 03:48:25;;;;;;;7.03;2.40;;;;;;;-3.26;100.00;99770.16;5094976;28;20384;-83
2022/01/21 03:51:10;;;;;;;4.63;1.27;;;;;;;-2.91;100.00;99781.44;5094992;28;20047;-83
2022/01/21 03:53:54;;;;;;;7.70;1.00;;;;;;;-2.92;100.00;99784.84;5095388;28;20040;-82
2022/01/21 03:56:43;;;;;;;3.50;0.98;;;;;;;-2.91;100.00;99783.16;5094829;28;20442;-82
2022/01/21 03:59:28;;;;;;;6.07;0.90;;;;;;;-2.99;100.00;99770.13;5094843;28;20047;-83
2022/01/21 04:02:13;;;;;;;6.55;0.95;;;;;;;-2.92;100.00;99778.84;5080935;28;20040;-83
2022/01/21 04:04:58;;;;;;;4.18;0.98;;;;;;;-2.93;100.00;99754.88;5095054;28;20438;-84
2022/01/21 04:07:42;;;;;;;4.15;1.38;;;;;;;-2.90;100.00;99765.22;5094873;28;20040;-82
2022/01/21 04:10:27;;;;;;;7.57;1.40;;;;;;;-2.85;100.00;99768.81;5080576;28;20412;-82
2022/01/21 04:13:15;;;;;;;5.13;1.27;;;;;;;-2.97;100.00;99773.56;5095519;28;20036;-82
2022/01/21 04:16:02;;;;;;;6.30;1.02;;;;;;;-2.85;100.00;99776.50;5098396;28;20052;-82
2022/01/21 04:18:49;;;;;;;6.60;0.93;;;;;;;-2.92;100.00;99751.53;5098528;28;20040;-82
2022/01/21 04:21:34;;;;;;;4.20;1.17;;;;;;;-2.69;100.00;99769.25;5098485;28;20044;-81
2022/01/21 04:24:20;;;;;;;7.15;1.40;;;;;;;-2.72;100.00;99782.84;5098565;28;20069;-81
2022/01/21 04:27:04;;;;;;;6.82;1.15;;;;;;;-2.79;100.00;99749.28;5084266;28;20098;-82
2022/01/21 04:29:48;;;;;;;8.00;0.93;;;;;;;-2.62;100.00;99781.38;5098253;28;20044;-82
2022/01/21 04:32:38;;;;;;;6.00;1.20;;;;;;;-2.74;100.00;99771.66;5098220;28;20109;-82
2022/01/21 04:35:28;;;;;;;3.80;1.50;;;;;;;-2.70;100.00;99775.16;5084635;28;20032;-82
2022/01/21 04:38:16;;;;;;;9.43;1.70;;;;;;;-2.58;100.00;99783.22;5083982;28;20037;-83
2022/01/21 04:47:40;;;;;;;2.45;0.60;;;;;;;-2.57;100.00;99790.06;5097966;28;20047;-82
2022/01/21 04:49:59;;;;;;;8.55;0.98;;;;;;;-2.42;100.00;99787.06;5096195;28;20056;-82
2022/01/21 04:52:45;;;;;;;7.80;1.30;;;;;;;-2.42;100.00;99772.53;5097853;28;20036;-83
2022/01/21 04:55:49;;;;;;;10.25;1.25;;;;;;;-2.46;100.00;99786.09;5097512;28;20066;-82
2022/01/21 04:58:34;;;;;;;4.50;1.67;;;;;;;-2.38;100.00;99791.44;5097753;28;20346;-82
2022/01/21 05:01:19;;;;;;;7.82;1.63;;;;;;;-2.58;100.00;99788.34;5083670;28;20048;-81
2022/01/21 05:04:04;;;;;;;8.07;1.02;;;;;;;-2.42;100.00;99793.06;5083339;28;20067;-81
2022/01/21 05:06:52;;;;;;;6.03;1.08;;;;;;;-2.52;100.00;99795.34;5097545;28;20349;-82
2022/01/21 05:09:36;;;;;;;5.90;1.75;;;;;;;-2.49;100.00;99796.28;5097428;28;20046;-82
2022/01/21 05:12:23;;;;;;;5.20;1.48;;;;;;;-2.46;100.00;99777.56;5097571;28;20048;-82
2022/01/21 05:17:56;;;;;;;4.72;1.30;;;;;;;-2.33;100.00;99800.13;5097587;28;20040;-83
2022/01/21 05:20:59;;;;;;;10.63;2.10;;;;;;;-2.28;100.00;99797.69;5097322;28;20044;-81
2022/01/21 05:23:50;;;;;;;5.40;1.52;;;;;;;-2.23;100.00;99807.25;5083928;28;20327;-81
2022/01/21 05:26:39;;;;;;;8.35;1.70;;;;;;;-2.15;100.00;99812.56;5096279;28;20039;-82
2022/01/21 05:29:26;;;;;;;68.50;22.50;;;;;;;-2.26;100.00;99798.59;5083079;28;20400;-83
2022/01/21 05:32:31;;;;;;;24.60;5.32;;;;;;;-2.17;100.00;99809.97;5095853;28;20471;-82
2022/01/21 05:35:36;;;;;;;25.95;6.78;;;;;;;-2.00;100.00;99795.00;5074379;28;20056;-81
2022/01/21 05:38:35;;;;;;;27.30;8.40;;;;;;;-2.09;100.00;99807.59;5084672;28;20066;-82
2022/01/21 05:41:51;;;;;;;27.30;6.63;;;;;;;-2.12;100.00;99817.78;5093436;28;20105;-81
2022/01/21 05:48:10;;;;;;;21.30;6.70;;;;;;;-2.15;100.00;99795.47;5066291;28;20507;-82
2022/01/21 05:51:13;;;;;;;13.43;4.43;;;;;;;-1.96;100.00;99812.19;5097013;28;20040;-83
2022/01/21 05:54:09;;;;;;;18.80;4.72;;;;;;;-2.10;100.00;99815.25;5084236;28;20040;-82
2022/01/21 05:57:14;;;;;;;;;;;;;;;-2.03;100.00;99828.28;5097086;28;20051;-81
2022/01/21 06:00:00;;;;;;;36.67;15.05;;;;;;;-2.14;100.00;99817.75;5096790;28;19920;-82
2022/01/21 06:02:44;;;;;;;14.90;4.78;;;;;;;-2.28;100.00;99813.06;5082294;28;20400;-81
2022/01/21 06:05:32;;;;;;;13.65;2.78;;;;;;;-2.26;100.00;99802.03;5096398;28;20445;-82
2022/01/21 06:08:18;;;;;;;11.15;1.35;;;;;;;-2.08;100.00;99817.06;5096541;28;20086;-83
2022/01/21 06:11:03;;;;;;;7.97;2.83;;;;;;;-2.18;100.00;99820.19;5096452;28;20433;-82
2022/01/21 06:13:49;;;;;;;5.10;1.70;;;;;;;-2.16;100.00;99805.69;5082083;28;20047;-82
2022/01/21 06:16:35;;;;;;;13.80;3.60;;;;;;;-2.21;100.00;99803.03;5082000;28;20036;-82
2022/01/21 06:19:19;;;;;;;17.67;6.72;;;;;;;-2.18;100.00;99809.91;5082023;28;20040;-82
2022/01/21 06:22:04;;;;;;;24.38;9.68;;;;;;;-2.23;100.00;99809.81;5096208;28;20055;-82
2022/01/21 06:24:50;;;;;;;16.02;5.35;;;;;;;-2.26;100.00;99807.16;5096758;28;20061;-82
2022/01/21 06:27:36;;;;;;;15.02;4.78;;;;;;;-2.37;100.00;99809.44;5096048;28;20051;-82
2022/01/21 06:30:21;;;;;;;11.98;5.18;;;;;;;-2.44;100.00;99805.00;5096044;28;20040;-82
2022/01/21 06:33:06;;;;;;;8.40;2.33;;;;;;;-2.44;100.00;99815.25;5081819;28;20048;-82
2022/01/21 06:35:51;;;;;;;7.30;2.53;;;;;;;-2.37;100.00;99819.72;5081509;28;20055;-81
2022/01/21 06:38:36;;;;;;;12.15;1.70;;;;;;;-2.30;100.00;99830.13;5095448;28;20044;-81
2022/01/21 06:41:20;;;;;;;14.63;4.50;;;;;;;-2.33;100.00;99823.22;5096363;28;20353;-81
2022/01/21 06:44:06;;;;;;;4.85;2.00;;;;;;;-2.47;100.00;99778.34;5096034;28;20109;-82
2022/01/21 06:46:50;;;;;;;11.70;2.28;;;;;;;-2.18;100.00;99809.91;5096353;28;20048;-81
2022/01/21 06:49:35;;;;;;;15.15;2.80;;;;;;;-2.41;100.00;99815.31;5095398;28;20097;-81
2022/01/21 06:52:20;;;;;;;5.03;1.38;;;;;;;-2.33;100.00;99810.41;5095411;28;20036;-82
2022/01/21 06:55:06;;;;;;;8.50;2.13;;;;;;;-2.32;100.00;99821.53;5095208;28;20036;-81
2022/01/21 06:57:50;;;;;;;7.80;2.50;;;;;;;-2.33;100.00;99828.34;5080613;28;20040;-81
2022/01/21 07:00:35;;;;;;;10.20;1.98;;;;;;;-2.27;100.00;99814.84;5094989;28;20055;-83
2022/01/21 07:03:20;;;;;;;10.25;3.40;;;;;;;-2.31;100.00;99828.38;5080838;28;20040;-82
2022/01/21 07:06:05;;;;;;;7.30;2.50;;;;;;;-2.30;100.00;99831.00;5080838;28;20043;-82
2022/01/21 07:08:49;;;;;;;12.35;6.07;;;;;;;-2.47;100.00;99829.66;5095744;28;20497;-82
2022/01/21 07:11:34;;;;;;;10.52;5.00;;;;;;;-2.45;100.00;99826.31;5080163;28;20051;-82
2022/01/21 07:14:19;;;;;;;14.05;4.57;;;;;;;-2.48;100.00;99831.34;5094902;28;20362;-81
2022/01/21 07:17:04;;;;;;;8.13;2.92;;;;;;;-2.32;100.00;99842.06;5095627;28;20040;-83
2022/01/21 07:19:48;;;;;;;18.98;5.32;;;;;;;-2.35;100.00;99840.25;5095127;28;20044;-82
2022/01/21 07:22:34;;;;;;;11.88;3.22;;;;;;;-2.37;100.00;99831.69;5081131;28;20060;-82
2022/01/21 07:25:18;;;;;;;15.52;6.57;;;;;;;-2.36;100.00;99841.97;5096288;28;20044;-82
2022/01/21 07:28:05;;;;;;;41.60;13.57;;;;;;;-2.36;100.00;99841.09;5081089;28;20047;-82
2022/01/21 07:30:49;;;;;;;45.53;14.75;;;;;;;-2.29;100.00;99839.56;5094927;28;20044;-82
2022/01/21 07:33:34;;;;;;;50.05;16.73;;;;;;;-2.33;100.00;99856.59;5095501;28;20044;-81
2022/01/21 07:36:18;;;;;;;30.48;9.55;;;;;;;-2.33;100.00;99853.16;5095618;28;20036;-83
2022/01/21 07:39:05;;;;;;;37.13;15.10;;;;;;;-2.38;100.00;99830.78;5080772;28;20382;-83
2022/01/21 07:41:50;;;;;;;246.25;77.70;;;;;;;-2.17;100.00;99848.47;5094737;28;20131;-83
2022/01/21 07:44:34;;;;;;;27.45;9.73;;;;;;;-1.91;100.00;99855.97;5095415;28;20044;-83
2022/01/21 07:47:19;;;;;;;17.20;7.57;;;;;;;-2.13;100.00;99841.72;5096100;28;20036;-83
2022/01/21 07:50:04;;;;;;;69.65;41.45;;;;;;;-1.90;100.00;99855.16;5082698;28;20048;-83
2022/01/21 07:52:49;;;;;;;22.02;10.32;;;;;;;-1.74;100.00;99834.16;5084882;28;20180;-83
2022/01/21 07:55:34;;;;;;;175.65;58.50;;;;;;;-1.57;100.00;99855.13;5099495;28;20422;-83
2022/01/21 07:58:19;;;;;;;291.20;119.85;;;;;;;-1.52;100.00;99871.53;5084938;28;20040;-84
2022/01/21 08:01:03;;;;;;;25.92;11.95;;;;;;;-1.71;100.00;99854.78;5098732;28;20048;-82
2022/01/21 08:03:47;;;;;;;18.27;10.15;;;;;;;-1.34;100.00;99857.38;5100004;28;20044;-83
2022/01/21 08:06:34;;;;;;;31.50;18.35;;;;;;;-1.05;100.00;99876.03;5098596;28;20039;-83
2022/01/21 08:09:23;;;;;;;40.08;29.25;;;;;;;-0.95;100.00;99863.41;5099434;28;20048;-83
2022/01/21 08:12:09;;;;;;;137.25;104.72;;;;;;;-0.86;100.00;99873.03;5099245;28;20048;-82
2022/01/21 08:14:53;;;;;;;118.35;92.90;;;;;;;-0.72;100.00;99857.88;5098503;28;20040;-83
2022/01/21 08:17:37;;;;;;;354.35;110.85;;;;;;;-0.68;100.00;99870.00;5098703;28;20076;-83
2022/01/21 08:20:22;;;;;;;60.45;27.02;;;;;;;-0.82;100.00;99877.41;5098581;28;20052;-83
2022/01/21 08:23:06;;;;;;;113.70;70.05;;;;;;;-0.86;100.00;99891.03;5099522;28;20040;-83
2022/01/21 08:25:51;;;;;;;80.43;50.95;;;;;;;-0.61;100.00;99905.31;5099505;28;20036;-83
2022/01/21 08:28:35;;;;;;;151.30;74.40;;;;;;;-0.75;100.00;99897.31;5098416;28;20044;-83
2022/01/21 08:31:20;;;;;;;21.88;10.85;;;;;;;-0.83;100.00;99918.53;5084306;28;20062;-82
2022/01/21 08:34:05;;;;;;;86.63;27.95;;;;;;;-0.71;100.00;99904.25;5084088;28;20178;-82
2022/01/21 08:36:49;;;;;;;37.00;14.32;;;;;;;-0.52;100.00;99922.63;5083954;28;20093;-81
2022/01/21 08:39:34;;;;;;;187.95;59.75;;;;;;;-0.35;100.00;99915.28;5083730;28;20422;-81
2022/01/21 08:42:18;;;;;;;136.85;51.03;;;;;;;-0.21;100.00;99911.28;5097825;28;20354;-81
2022/01/21 08:45:04;;;;;;;36.83;15.50;;;;;;;-0.24;100.00;99924.94;5083730;28;20052;-81
2022/01/21 08:47:49;;;;;;;114.13;47.22;;;;;;;-0.39;100.00;99934.06;5084015;28;20048;-81
2022/01/21 08:50:34;;;;;;;61.55;23.50;;;;;;;-0.43;100.00;99914.25;5098415;28;20045;-79
2022/01/21 08:53:38;;;;;;;124.13;47.92;;;;;;;-0.41;100.00;99918.59;5097750;28;20044;-80
2022/01/21 08:56:22;;;;;;;;;;;;;;;-0.24;100.00;99931.81;5098097;28;20048;-81
2022/01/21 08:59:07;;;;;;;35.45;13.38;;;;;;;-0.54;100.00;99921.75;5098850;28;19924;-80
2022/01/21 09:01:51;;;;;;;33.28;13.15;;;;;;;-0.39;100.00;99916.03;5096147;28;20358;-80
2022/01/21 09:04:36;;;;;;;44.55;19.38;;;;;;;-0.71;100.00;99922.25;5097742;28;20145;-81
2022/01/21 09:07:21;;;;;;;38.50;13.73;;;;;;;-0.61;100.00;99914.75;5083743;28;20043;-81
2022/01/21 09:10:07;;;;;;;33.50;12.82;;;;;;;-0.30;100.00;99935.13;5098112;28;20040;-81
2022/01/21 09:12:51;;;;;;;58.55;22.58;;;;;;;-0.26;100.00;99926.66;5097302;28;20350;-81
2022/01/21 09:15:37;;;;;;;41.00;16.63;;;;;;;-0.10;100.00;99926.94;5097279;28;20036;-81
2022/01/21 09:18:21;;;;;;;22.23;8.27;;;;;;;-0.09;100.00;99924.41;5097932;28;20357;-80
2022/01/21 09:21:06;;;;;;;40.25;15.18;;;;;;;0.32;100.00;99944.03;5098174;28;20068;-81
2022/01/21 09:23:52;;;;;;;38.80;15.25;;;;;;;0.34;100.00;99929.50;5082831;28;20047;-80
2022/01/21 09:26:36;;;;;;;21.85;10.15;;;;;;;0.35;100.00;99936.38;5098080;28;20115;-80
2022/01/21 09:29:21;;;;;;;26.45;10.43;;;;;;;0.56;100.00;99933.31;5097557;28;20044;-81
2022/01/21 09:32:06;;;;;;;26.88;12.23;;;;;;;0.85;100.00;99937.25;5096964;28;20052;-79
2022/01/21 09:34:50;;;;;;;44.80;20.52;;;;;;;0.66;100.00;99936.06;5097439;28;20039;-80
2022/01/21 09:37:35;;;;;;;21.88;8.30;;;;;;;0.49;100.00;99934.94;5097653;28;20396;-80
2022/01/21 09:40:32;;;;;;;87.85;44.33;;;;;;;0.43;100.00;99942.53;5097090;28;20106;-80
2022/01/21 09:43:18;;;;;;;74.82;31.55;;;;;;;0.43;100.00;99935.69;5096667;28;20047;-80
2022/01/21 09:46:05;;;;;;;36.38;16.42;;;;;;;0.36;100.00;99920.09;5096711;28;20338;-81
2022/01/21 09:48:54;;;;;;;83.32;37.28;;;;;;;0.37;100.00;99932.13;5096601;28;20036;-81
2022/01/21 09:51:39;;;;;;;230.15;137.50;;;;;;;0.36;100.00;99943.28;5097255;28;20048;-81
2022/01/21 09:54:27;;;;;;;36.80;19.77;;;;;;;0.35;100.00;99954.41;5097569;28;20047;-82
2022/01/21 09:57:17;;;;;;;108.72;64.78;;;;;;;0.30;100.00;99945.75;5082217;28;20062;-81
2022/01/21 10:00:04;;;;;;;264.95;137.80;;;;;;;-0.03;100.00;99952.84;5097281;28;20044;-81
2022/01/21 10:02:54;;;;;;;104.90;49.88;;;;;;;-0.08;100.00;99910.69;5096426;28;20361;-78
2022/01/21 10:05:39;;;;;;;157.45;77.68;;;;;;;-0.15;100.00;99949.16;5097535;28;20127;-81
2022/01/21 10:08:24;;;;;;;44.05;20.00;;;;;;;-0.27;100.00;99940.31;5096367;28;20044;-81
2022/01/21 10:11:09;;;;;;;193.73;87.38;;;;;;;-0.33;100.00;99947.91;5082296;28;20111;-81
2022/01/21 10:13:54;;;;;;;70.50;33.55;;;;;;;-0.34;100.00;99937.59;5096097;28;20370;-81
2022/01/21 10:16:38;;;;;;;105.45;57.63;;;;;;;-0.37;100.00;99933.25;5096686;28;20036;-81
2022/01/21 10:19:35;;;;;;;58.10;31.27;;;;;;;-0.17;100.00;99945.66;5081930;28;20115;-81
2022/01/21 10:22:26;;;;;;;18.98;9.35;;;;;;;-0.26;100.00;99936.03;5096038;28;20086;-81
2022/01/21 10:25:15;;;;;;;14.20;5.53;;;;;;;-0.15;100.00;99925.97;5097203;28;20051;-82
2022/01/21 10:28:08;;;;;;;13.38;6.63;;;;;;;-0.24;100.00;99942.09;5082115;28;20411;-81
2022/01/21 10:31:13;;;;;;;16.38;5.93;;;;;;;-0.42;100.00;99923.69;5081459;28;20040;-81
2022/01/21 10:34:04;;;;;;;11.35;3.00;;;;;;;-0.15;100.00;99923.41;5081588;28;20044;-80
2022/01/21 10:36:54;;;;;;;10.18;3.00;;;;;;;-0.29;100.00;99933.44;5095848;28;20039;-82
2022/01/21 10:40:02;;;;;;;7.90;2.83;;;;;;;-0.38;100.00;99930.66;5095713;28;20067;-81
2022/01/21 10:42:48;;;;;;;12.20;3.83;;;;;;;-0.26;100.00;99947.25;5096726;28;20054;-81
2022/01/21 10:45:57;;;;;;;14.57;5.28;;;;;;;-0.20;100.00;99945.59;5095821;28;20115;-81
2022/01/21 10:49:01;;;;;;;23.02;9.88;;;;;;;-0.14;100.00;99920.84;5081264;28;20054;-82
2022/01/21 10:51:50;;;;;;;17.95;6.15;;;;;;;-0.28;100.00;99937.75;5095701;28;20115;-81
2022/01/21 10:54:42;;;;;;;29.27;9.77;;;;;;;-0.38;100.00;99925.53;5096278;28;20435;-80
2022/01/21 10:57:29;;;;;;;44.40;14.98;;;;;;;-0.18;100.00;99931.06;5095281;28;20052;-81
2022/01/21 11:00:16;;;;;;;46.85;17.58;;;;;;;-0.16;100.00;99919.97;5081286;28;20511;-81
2022/01/21 11:03:18;;;;;;;26.90;10.10;;;;;;;0.04;100.00;99935.81;5096336;28;20040;-81
2022/01/21 11:06:12;;;;;;;24.55;8.75;;;;;;;-0.15;100.00;99939.72;5081003;28;20044;-81
2022/01/21 11:09:19;;;;;;;27.00;9.95;;;;;;;-0.22;100.00;99927.56;5095525;28;20101;-81
2022/01/21 11:12:07;;;;;;;17.33;5.28;;;;;;;-0.43;100.00;99929.69;5095913;28;20040;-79
2022/01/21 11:14:55;;;;;;;16.27;4.25;;;;;;;-0.12;100.00;99919.19;5095402;28;20043;-81
2022/01/21 11:17:58;;;;;;;11.40;4.40;;;;;;;0.34;100.00;99902.00;5096407;28;20036;-80
2022/01/21 11:20:47;;;;;;;6.75;2.40;;;;;;;0.15;100.00;99924.00;5095087;28;20044;-81
2022/01/21 11:23:34;;;;;;;26.63;6.97;;;;;;;0.44;100.00;99901.31;5094589;28;20048;-81
2022/01/21 11:26:20;;;;;;;16.98;7.97;;;;;;;0.62;100.00;99910.22;5095361;28;20039;-80
2022/01/21 11:29:07;;;;;;;85.28;29.77;;;;;;;0.61;100.00;99904.19;5080798;28;20043;-80
2022/01/21 11:31:51;;;;;;;82.20;31.88;;;;;;;0.86;100.00;99904.59;5096155;28;20115;-80
2022/01/21 11:34:36;;;;;;;115.22;53.85;;;;;;;0.81;100.00;99891.59;5096228;28;20047;-80
2022/01/21 11:37:23;;;;;;;8.68;2.58;;;;;;;0.96;100.00;99895.28;5080768;28;20044;-81
2022/01/21 11:40:08;;;;;;;23.60;3.85;;;;;;;0.63;100.00;99887.03;5081304;28;20054;-80
2022/01/21 11:42:54;;;;;;;7.63;2.83;;;;;;;0.63;100.00;99886.16;5066562;28;20121;-80
2022/01/21 11:48:53;;;;;;;11.30;4.20;;;;;;;0.75;100.00;99895.78;5095763;28;20047;-80
2022/01/21 11:51:39;;;;;;;;;;;;;;;0.85;100.00;99889.97;5095054;28;20118;-80
2022/01/21 11:54:24;;;;;;;13.05;3.28;;;;;;;0.99;100.00;99872.09;5095083;28;19920;-81
2022/01/21 11:57:11;;;;;;;11.25;4.18;;;;;;;1.09;100.00;99876.56;5094607;28;20097;-80
2022/01/21 12:00:05;;;;;;;32.40;14.07;;;;;;;0.99;100.00;99882.44;5095521;28;20040;-80
2022/01/21 12:02:50;;;;;;;12.45;3.58;;;;;;;0.80;100.00;99876.13;5094804;28;20036;-80
2022/01/21 12:05:35;;;;;;;25.30;8.20;;;;;;;0.66;100.00;99891.38;5095186;28;20040;-80
2022/01/21 12:08:47;;;;;;;54.58;13.82;;;;;;;0.74;100.00;99894.06;5095189;28;20093;-79
2022/01/21 12:11:34;;;;;;;8.95;3.72;;;;;;;0.63;100.00;99881.88;5080373;28;20036;-80
2022/01/21 12:14:32;;;;;;;89.53;34.45;;;;;;;0.52;100.00;99882.53;5094607;28;20059;-80
2022/01/21 12:17:37;;;;;;;22.35;6.82;;;;;;;0.35;100.00;99880.53;5080684;28;20323;-79
2022/01/21 12:20:32;;;;;;;36.55;10.38;;;;;;;0.43;100.00;99876.41;5095367;28;20040;-79
2022/01/21 12:23:18;;;;;;;22.70;4.82;;;;;;;0.56;100.00;99887.78;5080328;28;20036;-81
2022/01/21 12:26:26;;;;;;;42.10;14.40;;;;;;;0.36;100.00;99881.44;5080383;28;20069;-79
2022/01/21 12:29:13;;;;;;;32.58;10.63;;;;;;;0.50;100.00;99867.06;5080491;28;20126;-79
2022/01/21 12:32:07;;;;;;;8.65;3.88;;;;;;;0.41;100.00;99874.63;5094598;28;20044;-79
2022/01/21 12:35:17;;;;;;;18.67;6.38;;;;;;;0.38;100.00;99867.72;5088700;28;20135;-79
2022/01/21 12:41:15;;;;;;;20.45;9.18;;;;;;;0.56;100.00;99876.63;5098857;28;20055;-79
2022/01/21 12:44:03;;;;;;;8.48;4.53;;;;;;;0.30;100.00;99843.53;5098674;28;20418;-79
2022/01/21 12:46:52;;;;;;;37.30;12.40;;;;;;;0.54;100.00;99871.41;5098386;28;20044;-80
2022/01/21 12:49:44;;;;;;;28.05;9.40;;;;;;;0.69;100.00;99866.50;5098379;28;20040;-79
2022/01/21 12:52:47;;;;;;;11.63;4.68;;;;;;;0.86;100.00;99876.22;5098003;28;20383;-79
2022/01/21 12:58:41;;;;;;;17.15;4.97;;;;;;;0.44;100.00;99854.94;5098409;28;20112;-79
2022/01/21 13:01:25;;;;;;;27.05;7.35;;;;;;;0.20;100.00;99854.53;5097525;28;20056;-79
2022/01/21 13:04:24;;;;;;;9.82;3.30;;;;;;;0.45;100.00;99863.53;5098729;28;20040;-79
2022/01/21 13:07:20;;;;;;;19.75;6.55;;;;;;;0.47;100.00;99867.88;5097679;28;20040;-79
2022/01/21 13:10:26;;;;;;;13.88;4.60;;;;;;;0.53;100.00;99874.84;5098063;28;20040;-79
2022/01/21 13:15:55;;;;;;;28.92;7.72;;;;;;;0.49;100.00;99873.06;5098510;28;20044;-79
2022/01/21 13:18:42;;;;;;;18.33;6.72;;;;;;;0.49;100.00;99867.91;5083013;28;20040;-80
2022/01/21 13:21:27;;;;;;;75.20;23.05;;;;;;;0.34;100.00;99877.94;5083200;28;20044;-79
2022/01/21 13:24:25;;;;;;;44.38;16.80;;;;;;;0.24;100.00;99871.78;5097150;28;20044;-79
2022/01/21 13:27:09;;;;;;;23.15;8.35;;;;;;;0.23;100.00;99876.06;5097328;28;20040;-79
2022/01/21 13:30:00;;;;;;;20.98;8.25;;;;;;;0.29;100.00;99882.16;5097423;28;20036;-79
2022/01/21 13:32:46;;;;;;;25.08;10.40;;;;;;;0.11;100.00;99865.53;5083282;28;20047;-80
2022/01/21 13:35:32;;;;;;;15.45;5.85;;;;;;;0.11;100.00;99877.56;5082759;28;20040;-79
2022/01/21 13:38:18;;;;;;;31.50;9.93;;;;;;;0.06;100.00;99880.03;5097438;28;20040;-79
2022/01/21 13:41:10;;;;;;;49.83;12.10;;;;;;;0.13;100.00;99876.75;5096852;28;20044;-79
2022/01/21 13:44:04;;;;;;;60.30;18.35;;;;;;;0.06;100.00;99882.59;5098035;28;20055;-77
2022/01/21 13:46:48;;;;;;;53.90;11.98;;;;;;;0.04;100.00;99868.84;5096639;28;20090;-79
2022/01/21 13:49:33;;;;;;;30.38;8.57;;;;;;;0.19;100.00;99881.13;5082910;28;20063;-79
2022/01/21 13:52:18;;;;;;;25.58;6.22;;;;;;;-0.04;100.00;99881.56;5097270;28;20420;-79
2022/01/21 13:55:03;;;;;;;13.13;4.22;;;;;;;-0.12;100.00;99872.84;5082556;28;20170;-79
2022/01/21 13:57:48;;;;;;;12.77;3.92;;;;;;;-0.22;100.00;99868.34;5097073;28;20365;-79